Time;durP1;ratioP1;P1;durP2;ratioP2;P2;SDS_P1;SDS_P2;PMS_P1;PMS_P2;Temp;Humidity;BMP_temperature;BMP_pressure;BME280_temperature;BME280_humidity;BME280_pressure;Samples;Min_cycle;Max_cycle;Signal;HPM_P1;HPM_P2
2023/03/27 00:00:35;;;;;;;7.28;1.98;;;5.60;99.90;;;;;;5043533;28;20098;-58
2023/03/27 00:03:00;;;;;;;11.13;1.98;;;5.60;99.90;;;;;;5053089;28;20407;-58
2023/03/27 00:05:26;;;;;;;17.52;2.33;;;5.70;99.90;;;;;;5052464;28;20106;-58
2023/03/27 00:07:56;;;;;;;6.57;1.55;;;5.60;1.00;;;;;;5047772;28;20033;-58
2023/03/27 00:10:22;;;;;;;6.80;2.08;;;5.60;1.00;;;;;;5053124;28;20037;-58
2023/03/27 00:12:49;;;;;;;7.45;1.88;;;5.70;1.00;;;;;;5052984;28;20609;-58
2023/03/27 00:15:18;;;;;;;8.23;1.98;;;5.60;1.00;;;;;;5052491;28;20037;-58
2023/03/27 00:17:46;;;;;;;4.68;1.42;;;5.70;1.00;;;;;;5034652;28;20582;-58
2023/03/27 00:20:17;;;;;;;5.50;1.85;;;5.60;1.00;;;;;;5039252;28;20112;-58
2023/03/27 00:22:42;;;;;;;3.78;1.73;;;5.70;99.90;;;;;;5052500;28;20041;-58
2023/03/27 00:25:11;;;;;;;9.32;1.77;;;5.80;99.90;;;;;;5053016;28;20616;-58
2023/03/27 00:27:37;;;;;;;8.27;2.13;;;5.80;99.90;;;;;;5047908;28;20167;-58
2023/03/27 00:30:05;;;;;;;5.07;1.58;;;5.80;99.90;;;;;;5042500;28;20112;-58
2023/03/27 00:32:31;;;;;;;10.38;2.00;;;5.70;99.90;;;;;;5052602;28;20040;-58
2023/03/27 00:34:56;;;;;;;8.57;1.55;;;5.80;99.90;;;;;;5051186;28;20044;-58
2023/03/27 00:37:22;;;;;;;12.85;1.67;;;5.80;99.90;;;;;;5036886;28;20041;-58
2023/03/27 00:39:49;;;;;;;6.32;1.67;;;5.80;16.20;;;;;;5038823;28;20049;-58
2023/03/27 00:42:21;;;;;;;6.90;1.77;;;5.90;1.00;;;;;;5052284;28;20087;-58
2023/03/27 00:44:48;;;;;;;5.80;1.52;;;5.90;99.90;;;;;;5052062;28;20120;-58
2023/03/27 00:47:15;;;;;;;1.15;0.75;;;5.90;22.90;;;;;;5037619;28;20072;-58
2023/03/27 00:49:41;;;;;;;8.10;1.15;;;6.00;99.90;;;;;;5033678;28;20036;-58
2023/03/27 00:52:07;;;;;;;3.92;1.80;;;6.00;99.90;;;;;;5039664;28;20434;-58
2023/03/27 00:54:37;;;;;;;2.92;1.40;;;5.90;99.90;;;;;;5035550;28;20033;-58
2023/03/27 00:57:07;;;;;;;9.90;1.75;;;5.60;99.90;;;;;;5046664;28;20051;-58
2023/03/27 00:59:38;;;;;;;2.72;1.25;;;5.50;1.90;;;;;;5050783;28;20037;-58
2023/03/27 01:02:05;;;;;;;7.70;1.85;;;5.20;99.90;;;;;;5052131;28;20305;-58
2023/03/27 01:04:32;;;;;;;4.60;1.38;;;5.30;1.00;;;;;;5051129;28;20045;-58
2023/03/27 01:06:59;;;;;;;3.10;1.20;;;5.10;99.90;;;;;;5039902;28;20518;-58
2023/03/27 01:09:26;;;;;;;8.60;1.60;;;4.80;1.00;;;;;;5032003;28;20041;-58
2023/03/27 01:12:03;;;;;;;9.27;2.22;;;4.80;99.90;;;;;;5034633;28;20156;-58
2023/03/27 01:14:36;;;;;;;3.70;1.45;;;4.80;1.00;;;;;;5052102;28;20049;-58
2023/03/27 01:17:29;;;;;;;2.45;1.15;;;5.00;99.90;;;;;;5048351;28;20088;-58
2023/03/27 01:20:12;;;;;;;2.63;1.17;;;5.00;99.90;;;;;;5051950;28;20068;-57
2023/03/27 01:23:07;;;;;;;7.25;1.33;;;5.30;1.00;;;;;;5051574;28;20118;-58
2023/03/27 01:26:21;;;;;;;1.10;1.05;;;5.30;1.00;;;;;;5014471;28;20115;-58
2023/03/27 01:28:53;;;;;;;4.35;1.20;;;5.30;1.00;;;;;;5022288;28;20507;-58
2023/03/27 01:31:50;;;;;;;3.78;1.00;;;5.20;1.00;;;;;;5047172;28;20045;-58
2023/03/27 01:34:24;;;;;;;5.20;1.50;;;5.40;1.00;;;;;;5035811;28;20103;-58
2023/03/27 01:37:16;;;;;;;6.90;1.77;;;5.40;1.00;;;;;;5037839;28;20053;-58
2023/03/27 01:40:06;;;;;;;11.73;2.03;;;5.60;1.00;;;;;;5051401;28;20045;-58
2023/03/27 01:42:45;;;;;;;8.65;1.92;;;5.60;1.00;;;;;;5049655;28;20143;-58
2023/03/27 01:45:21;;;;;;;5.65;1.85;;;6.10;1.00;;;;;;5031169;28;20076;-58
2023/03/27 01:48:03;;;;;;;4.07;1.58;;;5.90;19.00;;;;;;5032363;28;20053;-58
2023/03/27 01:50:35;;;;;;;10.43;1.88;;;5.80;99.90;;;;;;5031164;28;20465;-58
2023/03/27 01:53:06;;;;;;;8.35;1.92;;;5.50;99.90;;;;;;5031158;28;20037;-58
2023/03/27 01:55:37;;;;;;;12.63;2.90;;;5.40;99.90;;;;;;5041237;28;20045;-58
2023/03/27 01:58:28;;;;;;;7.57;2.17;;;5.30;99.90;;;;;;5029343;28;20582;-58
2023/03/27 02:00:59;;;;;;;15.75;2.25;;;5.40;99.90;;;;;;5030773;28;20041;-58
2023/03/27 02:03:30;;;;;;;10.02;2.00;;;5.40;99.90;;;;;;5031062;28;20049;-58
2023/03/27 02:06:13;;;;;;;9.50;2.30;;;5.30;99.90;;;;;;5033208;28;20037;-58
2023/03/27 02:08:49;;;;;;;6.30;1.80;;;5.60;99.90;;;;;;5031043;28;20044;-58
2023/03/27 02:11:15;;;;;;;3.75;2.05;;;5.50;99.90;;;;;;5031032;28;20041;-58
2023/03/27 02:13:46;;;;;;;6.85;1.95;;;5.40;99.90;;;;;;5030783;28;20156;-58
2023/03/27 02:16:16;;;;;;;7.63;1.60;;;5.00;99.90;;;;;;5034387;28;20037;-57
2023/03/27 02:18:48;;;;;;;7.53;2.50;;;5.00;99.90;;;;;;5030676;28;20419;-57
2023/03/27 02:21:15;;;;;;;7.80;2.67;;;4.90;99.90;;;;;;5031269;28;20061;-58
2023/03/27 02:23:42;;;;;;;4.47;1.63;;;4.80;99.90;;;;;;5030704;28;20033;-57
2023/03/27 02:26:11;;;;;;;8.20;1.85;;;4.90;99.90;;;;;;5030781;28;20115;-58
2023/03/27 02:29:13;;;;;;;2.50;1.35;;;4.90;99.90;;;;;;5036630;28;20052;-58
2023/03/27 02:32:02;;;;;;;7.20;1.23;;;5.20;99.90;;;;;;5036358;28;20048;-58
2023/03/27 02:34:42;;;;;;;7.90;1.92;;;5.20;99.90;;;;;;5034666;28;20042;-58
2023/03/27 02:37:46;;;;;;;6.30;1.92;;;5.30;99.90;;;;;;5012548;28;20053;-58
2023/03/27 02:40:22;;;;;;;6.60;1.73;;;5.30;99.90;;;;;;5015369;28;20114;-58
2023/03/27 02:43:06;;;;;;;6.55;1.95;;;5.30;99.90;;;;;;5050197;28;20095;-58
2023/03/27 02:45:56;;;;;;;6.28;1.40;;;5.30;99.90;;;;;;5041366;28;20084;-58
2023/03/27 02:48:34;;;;;;;6.78;1.40;;;5.30;99.90;;;;;;5030500;28;20049;-58
2023/03/27 02:51:11;;;;;;;5.75;1.67;;;5.40;99.90;;;;;;5030998;28;20045;-58
2023/03/27 02:53:43;;;;;;;3.55;1.83;;;5.50;99.90;;;;;;5030254;28;20052;-58
2023/03/27 02:56:11;;;;;;;4.05;2.30;;;5.50;99.90;;;;;;5030274;28;20103;-58
2023/03/27 02:59:02;;;;;;;11.38;2.28;;;5.60;99.90;;;;;;5030284;28;20038;-58
2023/03/27 03:01:31;;;;;;;7.45;1.98;;;5.60;1.00;;;;;;5048568;28;20033;-58
2023/03/27 03:04:09;;;;;;;8.73;1.67;;;5.60;1.00;;;;;;5050166;28;20121;-58
2023/03/27 03:06:35;;;;;;;6.05;1.85;;;5.60;99.90;;;;;;5032804;28;20167;-58
2023/03/27 03:09:05;;;;;;;4.35;1.65;;;5.70;99.90;;;;;;5030229;28;20558;-58
2023/03/27 03:11:45;;;;;;;8.88;1.67;;;5.70;99.90;;;;;;5030863;28;20045;-58
2023/03/27 03:14:10;;;;;;;8.35;1.80;;;5.60;99.90;;;;;;5031887;28;20046;-58
2023/03/27 03:16:36;;;;;;;5.82;1.52;;;5.60;1.00;;;;;;5032939;28;20037;-58
2023/03/27 03:19:02;;;;;;;9.25;2.05;;;5.60;99.90;;;;;;5029998;28;20033;-58
2023/03/27 03:21:27;;;;;;;15.68;2.55;;;5.60;6.80;;;;;;5031738;28;20115;-58
2023/03/27 03:23:53;;;;;;;3.83;2.00;;;5.50;1.00;;;;;;5030000;28;20063;-58
2023/03/27 03:26:19;;;;;;;9.10;2.83;;;5.50;99.90;;;;;;5039476;28;20048;-58
2023/03/27 03:28:46;;;;;;;14.98;2.83;;;5.60;99.90;;;;;;5047729;28;20045;-58
2023/03/27 03:31:12;;;;;;;7.07;2.03;;;5.70;99.90;;;;;;5045831;28;20383;-58
2023/03/27 03:33:37;;;;;;;5.75;1.90;;;5.60;84.10;;;;;;5053631;28;20464;-58
2023/03/27 03:36:04;;;;;;;6.63;1.50;;;5.60;1.00;;;;;;5040308;28;20211;-58
2023/03/27 03:38:34;;;;;;;7.55;2.13;;;4.80;99.90;;;;;;5035530;28;20507;-58
2023/03/27 03:41:00;;;;;;;7.22;1.50;;;5.60;99.90;;;;;;5043142;28;20064;-58
2023/03/27 03:43:28;;;;;;;4.05;1.83;;;5.60;99.90;;;;;;5033513;28;20507;-58
2023/03/27 03:45:54;;;;;;;8.85;1.75;;;5.70;19.30;;;;;;5043499;28;20045;-58
2023/03/27 03:48:20;;;;;;;5.00;1.60;;;5.60;1.00;;;;;;5052085;28;20041;-58
2023/03/27 03:50:47;;;;;;;6.72;2.30;;;5.70;1.00;;;;;;5052716;28;20037;-58
2023/03/27 03:53:15;;;;;;;4.68;1.92;;;5.70;1.00;;;;;;5053490;28;20040;-58
2023/03/27 03:55:42;;;;;;;3.92;1.30;;;5.20;99.90;;;;;;5046171;28;20573;-58
2023/03/27 03:58:08;;;;;;;8.63;1.90;;;4.70;99.90;;;;;;5034176;28;20500;-58
2023/03/27 04:00:37;;;;;;;3.13;1.48;;;4.60;1.00;;;;;;5038559;28;20025;-58
2023/03/27 04:03:03;;;;;;;2.78;2.03;;;4.70;1.00;;;;;;5053135;28;20033;-58
2023/03/27 04:05:30;;;;;;;5.65;1.77;;;4.60;31.50;;;;;;5046934;28;20578;-58
2023/03/27 04:07:58;;;;;;;6.20;2.53;;;4.70;70.80;;;;;;5033254;28;20545;-58
2023/03/27 04:10:27;;;;;;;6.80;1.92;;;4.80;99.90;;;;;;5033214;28;20104;-58
2023/03/27 04:12:53;;;;;;;9.57;2.05;;;5.20;1.00;;;;;;5031947;28;20379;-58
2023/03/27 04:15:18;;;;;;;6.93;1.70;;;5.20;2.60;;;;;;5033462;28;20163;-58
2023/03/27 04:17:47;;;;;;;6.53;1.83;;;5.30;1.00;;;;;;5032928;28;20038;-58
2023/03/27 04:20:13;;;;;;;3.83;1.33;;;5.40;1.00;;;;;;5033182;28;20087;-58
2023/03/27 04:22:45;;;;;;;5.32;1.42;;;5.40;1.00;;;;;;5060409;28;20413;-58
2023/03/27 04:25:12;;;;;;;6.00;1.40;;;5.40;1.00;;;;;;5049833;28;20051;-58
2023/03/27 04:27:38;;;;;;;4.03;1.65;;;5.50;99.90;;;;;;5032885;28;20046;-58
2023/03/27 04:30:08;;;;;;;6.93;1.92;;;5.50;99.90;;;;;;5047414;28;20407;-58
2023/03/27 04:32:35;;;;;;;6.70;1.40;;;5.50;99.90;;;;;;5052102;28;20037;-58
2023/03/27 04:35:01;;;;;;;5.32;1.92;;;5.60;99.90;;;;;;5051070;28;20044;-58
2023/03/27 04:37:27;;;;;;;8.30;1.95;;;5.60;99.90;;;;;;5031156;28;20045;-58
2023/03/27 04:39:53;;;;;;;4.07;1.30;;;5.50;99.90;;;;;;5045575;28;20037;-58
2023/03/27 04:42:22;;;;;;;6.53;1.70;;;5.50;99.90;;;;;;5049625;28;20513;-58
2023/03/27 04:44:49;;;;;;;8.07;1.83;;;5.30;99.90;;;;;;5052267;28;20040;-58
2023/03/27 04:47:15;;;;;;;3.08;1.33;;;5.40;1.00;;;;;;5032736;28;20053;-58
2023/03/27 04:49:45;;;;;;;5.75;1.60;;;5.00;1.00;;;;;;5043725;28;20045;-58
2023/03/27 04:52:13;;;;;;;3.53;1.38;;;5.10;1.00;;;;;;5052279;28;20052;-58
2023/03/27 04:54:39;;;;;;;5.65;1.70;;;4.90;91.80;;;;;;5052262;28;20094;-58
2023/03/27 04:57:06;;;;;;;7.38;1.95;;;5.00;99.90;;;;;;5041093;28;20415;-58
2023/03/27 04:59:32;;;;;;;9.30;1.83;;;4.90;99.90;;;;;;5041717;28;20116;-58
2023/03/27 05:02:01;;;;;;;22.58;2.72;;;5.20;99.90;;;;;;5032408;28;20407;-58
2023/03/27 05:04:28;;;;;;;4.47;1.25;;;5.20;15.60;;;;;;5035271;28;20041;-58
2023/03/27 05:06:55;;;;;;;5.32;1.40;;;5.20;1.00;;;;;;5047853;28;20116;-58
2023/03/27 05:09:22;;;;;;;5.30;1.33;;;5.40;50.00;;;;;;5046150;28;20055;-58
2023/03/27 05:11:48;;;;;;;3.80;1.27;;;5.50;1.00;;;;;;5051835;28;20044;-58
2023/03/27 05:14:22;;;;;;;6.18;1.42;;;5.40;99.90;;;;;;5050531;28;20048;-58
2023/03/27 05:16:49;;;;;;;5.38;1.55;;;5.50;1.00;;;;;;5045405;28;20135;-58
2023/03/27 05:19:15;;;;;;;5.90;2.08;;;5.40;99.90;;;;;;5051963;28;20167;-58
2023/03/27 05:21:42;;;;;;;8.23;1.85;;;5.50;93.30;;;;;;5051694;28;20033;-58
2023/03/27 05:24:08;;;;;;;9.98;1.80;;;5.50;1.00;;;;;;5049241;28;20084;-58
2023/03/27 05:26:34;;;;;;;6.22;1.85;;;5.40;1.00;;;;;;5038640;28;20049;-58
2023/03/27 05:29:00;;;;;;;5.85;1.58;;;5.40;1.00;;;;;;5036584;28;20525;-58
2023/03/27 05:31:27;;;;;;;9.65;1.77;;;5.50;99.90;;;;;;5051158;28;20072;-58
2023/03/27 05:33:52;;;;;;;7.10;1.38;;;5.50;1.00;;;;;;5046808;28;20049;-58
2023/03/27 05:36:19;;;;;;;5.40;1.25;;;5.60;96.40;;;;;;5038974;28;20033;-58
2023/03/27 05:38:44;;;;;;;3.28;1.42;;;5.50;99.90;;;;;;5037238;28;20082;-58
2023/03/27 05:41:10;;;;;;;8.35;1.75;;;5.40;99.90;;;;;;5036198;28;20044;-58
2023/03/27 05:43:36;;;;;;;6.38;1.73;;;5.60;14.70;;;;;;5016503;28;20156;-58
2023/03/27 05:46:02;;;;;;;1.63;1.10;;;5.60;99.90;;;;;;5033162;28;20108;-58
2023/03/27 05:48:28;;;;;;;0.73;0.73;;;5.30;33.90;;;;;;5051261;28;20052;-58
2023/03/27 05:50:54;;;;;;;3.63;0.98;;;5.10;99.90;;;;;;5050472;28;20033;-58
2023/03/27 05:53:20;;;;;;;2.60;1.30;;;4.90;99.90;;;;;;5038643;28;20049;-58
2023/03/27 05:55:45;;;;;;;2.10;1.48;;;4.80;99.90;;;;;;5034384;28;20054;-59
2023/03/27 05:58:12;;;;;;;2.53;1.15;;;4.80;99.90;;;;;;5031217;28;20038;-58
2023/03/27 06:00:41;;;;;;;2.20;1.00;;;4.80;99.90;;;;;;5037342;28;20033;-58
2023/03/27 06:03:08;;;;;;;1.08;0.98;;;4.80;99.90;;;;;;5041357;28;20075;-60
2023/03/27 06:05:34;;;;;;;5.60;1.23;;;4.90;99.90;;;;;;5035891;28;20372;-58
2023/03/27 06:08:00;;;;;;;2.70;1.15;;;4.90;99.90;;;;;;5037970;28;20409;-58
2023/03/27 06:10:28;;;;;;;4.05;1.45;;;5.00;99.90;;;;;;5044032;28;20115;-59
2023/03/27 06:13:05;;;;;;;5.35;1.10;;;5.00;1.00;;;;;;5038883;28;20450;-59
2023/03/27 06:15:32;;;;;;;1.55;0.90;;;5.10;99.90;;;;;;5035515;28;20056;-58
2023/03/27 06:17:58;;;;;;;2.80;1.35;;;5.20;1.00;;;;;;5030690;28;20037;-59
2023/03/27 06:20:23;;;;;;;4.50;1.38;;;5.10;1.00;;;;;;5035338;28;20577;-59
2023/03/27 06:22:55;;;;;;;2.50;1.13;;;5.10;10.20;;;;;;5046226;28;20495;-59
2023/03/27 06:25:22;;;;;;;5.97;1.63;;;5.10;99.90;;;;;;5044726;28;20041;-59
2023/03/27 06:27:49;;;;;;;3.20;1.30;;;5.20;54.60;;;;;;5041468;28;20041;-58
2023/03/27 06:30:20;;;;;;;5.43;1.30;;;5.20;42.70;;;;;;5039228;28;20036;-58
2023/03/27 06:32:56;;;;;;;7.80;1.30;;;5.20;99.90;;;;;;5047267;28;20131;-58
2023/03/27 06:35:22;;;;;;;8.00;1.70;;;5.40;99.90;;;;;;5032163;28;20391;-59
2023/03/27 06:37:49;;;;;;;8.00;1.23;;;5.30;99.90;;;;;;5040001;28;20040;-58
2023/03/27 06:40:21;;;;;;;7.20;1.55;;;5.30;46.90;;;;;;5036919;28;20080;-58
2023/03/27 06:42:54;;;;;;;2.63;1.30;;;5.40;99.90;;;;;;5035126;28;20503;-59
2023/03/27 06:45:21;;;;;;;8.57;1.67;;;5.40;99.90;;;;;;5038626;28;20040;-58
2023/03/27 06:47:49;;;;;;;6.15;1.83;;;5.60;99.90;;;;;;5036442;28;20036;-58
2023/03/27 06:50:15;;;;;;;6.32;1.35;;;5.50;5.80;;;;;;5032546;28;20067;-58
2023/03/27 06:52:41;;;;;;;3.70;1.38;;;5.70;1.00;;;;;;5039995;28;20041;-59
2023/03/27 06:55:08;;;;;;;4.97;1.55;;;5.70;99.90;;;;;;5039097;28;20041;-58
2023/03/27 06:57:34;;;;;;;3.95;1.50;;;5.70;99.90;;;;;;5031628;28;20076;-58
2023/03/27 07:00:00;;;;;;;2.78;1.38;;;5.70;99.90;;;;;;5032959;28;20463;-59
2023/03/27 07:02:25;;;;;;;7.43;1.58;;;5.70;99.90;;;;;;5043330;28;20064;-59
2023/03/27 07:04:51;;;;;;;2.72;1.35;;;5.30;99.90;;;;;;5041173;28;20045;-59
2023/03/27 07:07:17;;;;;;;9.32;1.50;;;4.70;1.00;;;;;;5032282;28;20033;-59
2023/03/27 07:09:42;;;;;;;8.32;1.90;;;4.50;99.90;;;;;;5037807;28;20036;-59
2023/03/27 07:12:08;;;;;;;6.95;1.77;;;4.50;99.90;;;;;;5040792;28;20068;-58
2023/03/27 07:14:34;;;;;;;4.03;1.58;;;4.40;1.00;;;;;;5040166;28;20495;-59
2023/03/27 07:16:59;;;;;;;7.25;1.50;;;4.40;99.90;;;;;;5039021;28;20406;-63
2023/03/27 07:19:26;;;;;;;5.28;1.38;;;4.60;99.90;;;;;;5033266;28;20141;-58
2023/03/27 07:21:52;;;;;;;10.00;1.98;;;4.70;1.00;;;;;;5044105;28;20494;-58
2023/03/27 07:24:18;;;;;;;8.18;2.10;;;4.70;97.10;;;;;;5044587;28;20114;-58
2023/03/27 07:26:43;;;;;;;8.45;1.70;;;5.00;99.90;;;;;;5038806;28;20507;-60
2023/03/27 07:29:09;;;;;;;4.43;1.38;;;5.00;99.90;;;;;;5037336;28;20358;-58
2023/03/27 07:31:36;;;;;;;4.22;1.60;;;5.40;99.90;;;;;;5030977;28;20055;-58
2023/03/27 07:34:02;;;;;;;2.20;1.42;;;5.70;99.90;;;;;;5031985;28;20037;-58
2023/03/27 07:36:27;;;;;;;5.78;1.33;;;5.80;99.90;;;;;;5044446;28;20506;-58
2023/03/27 07:38:53;;;;;;;4.40;1.08;;;5.90;99.90;;;;;;5040063;28;20359;-58
2023/03/27 07:41:19;;;;;;;7.25;1.55;;;5.90;99.90;;;;;;5037907;28;20561;-58
2023/03/27 07:43:45;;;;;;;4.93;1.48;;;5.90;73.00;;;;;;5043021;28;20513;-59
2023/03/27 07:46:11;;;;;;;6.60;2.08;;;5.90;1.00;;;;;;5032209;28;20033;-58
2023/03/27 07:48:37;;;;;;;5.13;1.70;;;6.20;1.00;;;;;;5034191;28;20540;-59
2023/03/27 07:51:04;;;;;;;7.88;2.15;;;6.10;99.90;;;;;;5040857;28;20040;-59
2023/03/27 07:53:30;;;;;;;3.60;1.50;;;6.10;99.90;;;;;;5045010;28;20046;-58
2023/03/27 07:55:57;;;;;;;9.20;1.77;;;6.30;99.90;;;;;;5041820;28;20396;-59
2023/03/27 07:58:24;;;;;;;9.15;1.83;;;6.40;99.90;;;;;;5035654;28;20037;-59
2023/03/27 08:00:51;;;;;;;5.88;1.98;;;6.60;99.90;;;;;;5031300;28;20037;-59
2023/03/27 08:03:18;;;;;;;7.38;1.95;;;6.60;82.00;;;;;;5031889;28;20076;-59
2023/03/27 08:05:51;;;;;;;4.30;1.70;;;6.70;99.90;;;;;;5031931;28;20037;-59
2023/03/27 08:08:16;;;;;;;6.03;1.75;;;6.90;31.60;;;;;;5044469;28;20045;-59
2023/03/27 08:10:42;;;;;;;6.20;1.88;;;6.90;99.90;;;;;;5038844;28;20403;-59
2023/03/27 08:13:08;;;;;;;9.18;1.92;;;6.80;99.90;;;;;;5046236;28;20197;-59
2023/03/27 08:15:34;;;;;;;6.78;1.80;;;6.70;1.00;;;;;;5036967;28;20426;-59
2023/03/27 08:18:00;;;;;;;10.50;2.08;;;6.80;99.90;;;;;;5038911;28;20033;-59
2023/03/27 08:20:26;;;;;;;5.28;1.83;;;6.90;1.00;;;;;;5044838;28;20826;-59
2023/03/27 08:22:51;;;;;;;8.43;1.92;;;7.10;1.00;;;;;;5038322;28;20545;-59
2023/03/27 08:25:17;;;;;;;9.60;2.35;;;6.90;99.90;;;;;;5037372;28;20049;-59
2023/03/27 08:27:44;;;;;;;9.20;2.22;;;6.60;99.90;;;;;;5035273;28;20127;-59
2023/03/27 08:30:11;;;;;;;7.20;1.65;;;6.40;1.00;;;;;;5036031;28;20064;-59
2023/03/27 08:32:41;;;;;;;5.45;1.83;;;6.40;99.90;;;;;;5037647;28;20392;-59
2023/03/27 08:35:07;;;;;;;5.55;1.75;;;6.70;92.30;;;;;;5044760;28;20029;-59
2023/03/27 08:37:34;;;;;;;10.05;2.00;;;6.70;1.00;;;;;;5037171;28;20116;-59
2023/03/27 08:40:00;;;;;;;10.40;1.85;;;6.70;1.00;;;;;;5036478;28;20112;-59
2023/03/27 08:42:35;;;;;;;9.52;2.08;;;6.70;99.90;;;;;;5033922;28;20033;-59
2023/03/27 08:45:07;;;;;;;8.33;1.80;;;6.80;99.90;;;;;;5029537;28;20037;-59
2023/03/27 08:47:39;;;;;;;5.57;1.63;;;7.40;99.90;;;;;;5034111;28;20062;-59
2023/03/27 08:50:20;;;;;;;6.00;1.60;;;7.60;99.90;;;;;;5037984;28;20044;-58
2023/03/27 08:52:46;;;;;;;3.92;1.42;;;7.30;99.90;;;;;;5035752;28;20050;-58
2023/03/27 08:55:21;;;;;;;7.55;1.77;;;7.00;1.00;;;;;;5037157;28;20045;-59
2023/03/27 08:57:49;;;;;;;6.82;1.33;;;7.20;76.70;;;;;;5033125;28;20030;-59
2023/03/27 09:00:21;;;;;;;4.28;1.58;;;6.60;99.90;;;;;;5040074;28;20112;-58
2023/03/27 09:02:51;;;;;;;8.23;1.73;;;6.20;99.90;;;;;;5037358;28;20056;-58
2023/03/27 09:05:29;;;;;;;2.38;1.55;;;6.00;91.90;;;;;;5036722;28;20041;-59
2023/03/27 09:08:06;;;;;;;2.80;1.15;;;6.40;25.80;;;;;;5033492;28;20406;-59
2023/03/27 09:10:38;;;;;;;5.50;1.35;;;6.30;99.90;;;;;;5036227;28;20042;-63
2023/03/27 09:13:15;;;;;;;4.50;1.23;;;6.70;99.90;;;;;;5030460;28;20046;-60
2023/03/27 09:15:59;;;;;;;1.85;1.35;;;6.90;1.00;;;;;;5033961;28;20107;-59
2023/03/27 09:18:34;;;;;;;1.63;1.25;;;7.30;99.90;;;;;;5036663;28;20037;-60
2023/03/27 09:21:12;;;;;;;2.05;1.10;;;7.30;71.10;;;;;;5038424;28;20116;-60
2023/03/27 09:23:42;;;;;;;4.15;1.45;;;7.30;99.90;;;;;;5033899;28;20053;-59
2023/03/27 09:26:19;;;;;;;3.03;1.20;;;7.30;63.00;;;;;;5035859;28;20049;-60
2023/03/27 09:28:54;;;;;;;5.40;1.50;;;7.30;1.00;;;;;;5038593;28;20074;-60
2023/03/27 09:31:33;;;;;;;7.00;1.75;;;7.30;79.50;;;;;;5051908;28;20483;-59
2023/03/27 09:34:10;;;;;;;2.70;1.38;;;7.20;99.90;;;;;;5037620;28;20463;-59
2023/03/27 09:36:37;;;;;;;7.03;1.30;;;7.20;99.90;;;;;;5035451;28;20041;-60
2023/03/27 09:39:14;;;;;;;5.13;1.65;;;7.20;1.00;;;;;;5032964;28;20041;-60
2023/03/27 09:41:49;;;;;;;1.73;1.25;;;7.30;99.90;;;;;;5034982;28;20600;-60
2023/03/27 09:44:29;;;;;;;4.88;1.50;;;7.40;99.90;;;;;;5043486;28;20493;-60
2023/03/27 09:47:05;;;;;;;11.00;1.67;;;7.40;1.00;;;;;;5031965;28;20477;-59
2023/03/27 09:49:32;;;;;;;5.35;1.70;;;7.50;99.90;;;;;;5034752;28;20064;-59
2023/03/27 09:51:59;;;;;;;11.57;2.03;;;7.70;99.90;;;;;;5032120;28;20048;-60
2023/03/27 09:54:31;;;;;;;3.90;1.25;;;7.80;1.00;;;;;;5032193;28;20590;-59
2023/03/27 09:56:58;;;;;;;6.85;2.30;;;7.70;99.90;;;;;;5032040;28;20048;-65
2023/03/27 09:59:26;;;;;;;9.52;1.70;;;7.80;99.90;;;;;;5035881;28;20394;-60
2023/03/27 10:01:56;;;;;;;9.02;1.73;;;7.90;99.90;;;;;;5037429;28;20106;-60
2023/03/27 10:04:24;;;;;;;8.27;2.15;;;8.00;99.90;;;;;;5054943;28;20049;-59
2023/03/27 10:07:04;;;;;;;4.78;1.80;;;8.00;99.90;;;;;;5037047;28;20048;-60
2023/03/27 10:09:35;;;;;;;9.57;2.08;;;7.90;36.20;;;;;;5043538;28;20037;-59
2023/03/27 10:12:06;;;;;;;6.53;1.77;;;8.10;99.90;;;;;;5033692;28;20037;-59
2023/03/27 10:14:51;;;;;;;7.60;1.98;;;8.00;1.00;;;;;;5036523;28;20102;-59
2023/03/27 10:17:35;;;;;;;4.93;1.95;;;7.90;28.70;;;;;;5029442;28;20042;-59
2023/03/27 10:20:17;;;;;;;6.90;1.50;;;7.50;90.80;;;;;;5031728;28;20040;-59
2023/03/27 10:22:58;;;;;;;8.40;1.60;;;7.30;99.90;;;;;;5030630;28;20095;-59
2023/03/27 10:25:44;;;;;;;9.45;2.05;;;7.30;1.00;;;;;;5032398;28;20045;-59
2023/03/27 10:28:22;;;;;;;5.55;2.00;;;7.20;99.90;;;;;;5035902;28;20048;-59
2023/03/27 10:31:02;;;;;;;3.00;1.27;;;7.60;99.90;;;;;;5045089;28;20028;-59
2023/03/27 10:33:36;;;;;;;3.72;1.45;;;7.50;99.90;;;;;;5031243;28;20045;-59
2023/03/27 10:36:07;;;;;;;5.53;1.80;;;7.90;1.00;;;;;;5029230;28;20479;-59
2023/03/27 10:38:35;;;;;;;11.20;2.13;;;8.00;1.00;;;;;;5034340;28;20041;-59
2023/03/27 10:41:12;;;;;;;6.60;1.88;;;8.00;99.90;;;;;;5034369;28;20049;-59
2023/03/27 10:43:43;;;;;;;6.90;2.15;;;8.00;55.60;;;;;;5029330;28;20041;-60
2023/03/27 10:46:19;;;;;;;4.05;1.80;;;8.40;1.00;;;;;;5043436;28;20399;-59
2023/03/27 10:49:08;;;;;;;3.85;1.77;;;8.30;1.00;;;;;;5035552;28;20044;-59
2023/03/27 10:51:48;;;;;;;13.15;2.40;;;8.30;78.70;;;;;;5034956;28;20041;-59
2023/03/27 10:54:35;;;;;;;4.53;1.70;;;8.50;1.00;;;;;;5039115;28;20041;-59
2023/03/27 10:57:21;;;;;;;6.95;2.00;;;8.50;99.90;;;;;;5037239;28;20450;-59
2023/03/27 10:59:53;;;;;;;6.25;1.73;;;8.70;99.90;;;;;;5032806;28;20079;-59
2023/03/27 11:02:29;;;;;;;5.10;1.63;;;8.50;85.50;;;;;;5030432;28;20491;-59
2023/03/27 11:05:01;;;;;;;;;;;8.70;52.60;;;;;;5036172;28;20507;-59
2023/03/27 11:07:56;;;;;;;9.60;2.17;;;8.70;1.00;;;;;;5030843;28;19916;-59
2023/03/27 11:10:29;;;;;;;7.75;2.03;;;8.80;1.00;;;;;;5035075;28;20186;-59
2023/03/27 11:13:16;;;;;;;10.93;2.33;;;8.70;1.00;;;;;;5039075;28;20214;-60
2023/03/27 11:15:48;;;;;;;6.68;1.50;;;8.90;99.90;;;;;;5026462;28;20479;-59
2023/03/27 11:18:21;;;;;;;9.77;2.28;;;8.80;99.90;;;;;;5041665;28;20095;-59
2023/03/27 11:20:52;;;;;;;5.47;1.88;;;8.70;99.90;;;;;;5046409;28;20041;-59
2023/03/27 11:23:38;;;;;;;5.90;1.60;;;8.40;99.90;;;;;;5035464;28;20527;-59
2023/03/27 11:26:05;;;;;;;3.95;1.75;;;8.40;99.90;;;;;;5037504;28;20033;-59
2023/03/27 11:28:42;;;;;;;8.18;2.13;;;8.50;99.90;;;;;;5036820;28;20120;-59
2023/03/27 11:31:38;;;;;;;11.98;2.42;;;8.40;99.90;;;;;;5028107;28;20479;-59
2023/03/27 11:34:10;;;;;;;9.55;2.45;;;8.40;99.90;;;;;;5038322;28;20049;-59
2023/03/27 11:36:54;;;;;;;9.75;2.22;;;8.40;99.90;;;;;;5037658;28;20045;-59
2023/03/27 11:39:48;;;;;;;10.13;2.20;;;8.50;99.90;;;;;;5039124;28;20525;-59
2023/03/27 11:42:19;;;;;;;11.52;2.70;;;8.50;99.90;;;;;;5034179;28;20159;-59
2023/03/27 11:44:46;;;;;;;12.45;2.30;;;8.40;1.00;;;;;;5038956;28;20543;-59
2023/03/27 11:47:42;;;;;;;9.55;2.83;;;8.00;99.90;;;;;;5042753;28;20049;-59
2023/03/27 11:50:09;;;;;;;5.28;1.92;;;8.00;1.00;;;;;;5036980;28;20049;-59
2023/03/27 11:53:12;;;;;;;6.60;2.17;;;8.10;74.70;;;;;;5040510;28;20045;-60
2023/03/27 11:55:45;;;;;;;6.25;1.98;;;8.00;99.90;;;;;;5037253;28;20038;-59
2023/03/27 11:58:34;;;;;;;9.80;1.85;;;7.80;99.90;;;;;;5043268;28;20121;-59
2023/03/27 12:01:01;;;;;;;8.18;1.80;;;7.60;92.40;;;;;;5037986;28;20162;-59
2023/03/27 12:03:45;;;;;;;8.52;2.08;;;7.70;99.90;;;;;;5042373;28;20040;-59
2023/03/27 12:06:21;;;;;;;6.68;1.90;;;7.80;99.90;;;;;;5048805;28;20592;-59
2023/03/27 12:08:48;;;;;;;5.80;1.95;;;9.30;99.90;;;;;;5035011;28;20037;-59
2023/03/27 12:11:16;;;;;;;6.88;1.92;;;8.20;26.40;;;;;;5038525;28;20053;-59
2023/03/27 12:14:07;;;;;;;7.72;2.30;;;8.50;12.10;;;;;;5037700;28;20049;-59
2023/03/27 12:16:53;;;;;;;5.65;1.85;;;8.50;1.00;;;;;;5045467;28;20037;-59
2023/03/27 12:20:08;;;;;;;6.88;1.83;;;8.80;99.90;;;;;;5049582;28;20076;-59
2023/03/27 12:22:42;;;;;;;8.75;2.28;;;8.90;99.90;;;;;;5032865;28;20058;-59
2023/03/27 12:25:27;;;;;;;15.85;2.72;;;8.90;99.90;;;;;;5039084;28;20045;-59
2023/03/27 12:28:24;;;;;;;7.68;1.88;;;8.70;99.90;;;;;;5038117;28;20041;-58
2023/03/27 12:31:16;;;;;;;10.63;1.85;;;8.50;99.90;;;;;;5051521;28;20049;-59
2023/03/27 12:33:52;;;;;;;6.97;1.80;;;8.00;99.90;;;;;;5045268;28;20029;-59
2023/03/27 12:36:23;;;;;;;7.47;1.85;;;8.20;99.90;;;;;;5035864;28;20037;-59
2023/03/27 12:38:53;;;;;;;8.05;2.35;;;8.30;99.90;;;;;;5036535;28;20502;-59
2023/03/27 12:41:29;;;;;;;9.00;2.10;;;8.50;99.90;;;;;;5031035;28;20041;-59
2023/03/27 12:43:59;;;;;;;8.25;1.80;;;8.40;99.90;;;;;;5034518;28;20044;-59
2023/03/27 12:46:28;;;;;;;7.70;2.55;;;6.90;99.90;;;;;;5036203;28;20049;-59
2023/03/27 12:49:00;;;;;;;3.97;1.25;;;8.10;99.90;;;;;;5040448;28;20549;-59
2023/03/27 12:51:41;;;;;;;7.13;1.50;;;8.30;99.90;;;;;;5044532;28;20106;-59
2023/03/27 12:54:23;;;;;;;8.10;1.35;;;8.60;99.90;;;;;;5037223;28;20410;-59
2023/03/27 12:57:07;;;;;;;6.43;1.88;;;8.60;99.90;;;;;;5033896;28;20037;-59
2023/03/27 12:59:35;;;;;;;8.88;2.03;;;8.70;99.90;;;;;;5037967;28;20051;-59
2023/03/27 13:02:03;;;;;;;3.25;1.45;;;8.80;99.90;;;;;;5039009;28;20041;-59
2023/03/27 13:04:50;;;;;;;13.30;1.98;;;8.50;99.90;;;;;;5041499;28;20387;-59
2023/03/27 13:07:42;;;;;;;8.77;1.75;;;8.40;99.90;;;;;;5036738;28;20118;-59
2023/03/27 13:10:25;;;;;;;6.78;1.67;;;8.70;99.90;;;;;;5037276;28;20040;-59
2023/03/27 13:13:10;;;;;;;4.63;1.50;;;8.70;99.90;;;;;;5035320;28;20029;-59
2023/03/27 13:15:56;;;;;;;6.15;1.48;;;8.70;99.90;;;;;;5044502;28;20045;-59
2023/03/27 13:18:46;;;;;;;9.55;1.88;;;8.70;99.90;;;;;;5037702;28;20113;-59
2023/03/27 13:21:34;;;;;;;4.97;1.75;;;8.70;99.90;;;;;;5030312;28;20048;-59
2023/03/27 13:24:19;;;;;;;4.15;1.45;;;8.70;99.90;;;;;;5037793;28;20411;-59
2023/03/27 13:27:02;;;;;;;7.30;1.80;;;8.30;94.90;;;;;;5039785;28;20053;-59